sensor_id;sensor_type;location;lat;lon;timestamp;P1;durP1;ratioP1;P2;durP2;ratioP2
55423;SDS011;41294;42.666;23.350;2023-08-01T00:01:03;2.80;;;2.30;;
55423;SDS011;41294;42.666;23.350;2023-08-01T00:03:29;3.58;;;2.15;;
55423;SDS011;41294;42.666;23.350;2023-08-01T00:05:54;2.30;;;2.10;;
55423;SDS011;41294;42.666;23.350;2023-08-01T00:08:20;2.05;;;1.80;;
55423;SDS011;41294;42.666;23.350;2023-08-01T00:10:46;4.13;;;2.35;;
55423;SDS011;41294;42.666;23.350;2023-08-01T00:13:11;2.20;;;2.00;;
55423;SDS011;41294;42.666;23.350;2023-08-01T00:15:37;2.00;;;1.90;;
55423;SDS011;41294;42.666;23.350;2023-08-01T00:18:02;2.20;;;2.10;;
55423;SDS011;41294;42.666;23.350;2023-08-01T00:20:28;3.45;;;2.42;;
55423;SDS011;41294;42.666;23.350;2023-08-01T00:22:53;3.30;;;2.30;;
55423;SDS011;41294;42.666;23.350;2023-08-01T00:25:19;2.10;;;1.90;;
55423;SDS011;41294;42.666;23.350;2023-08-01T00:27:45;2.10;;;1.90;;
55423;SDS011;41294;42.666;23.350;2023-08-01T00:30:10;2.75;;;2.17;;
55423;SDS011;41294;42.666;23.350;2023-08-01T00:32:36;2.40;;;2.20;;
55423;SDS011;41294;42.666;23.350;2023-08-01T00:35:02;2.83;;;2.25;;
55423;SDS011;41294;42.666;23.350;2023-08-01T00:37:28;2.28;;;2.17;;
55423;SDS011;41294;42.666;23.350;2023-08-01T00:39:53;2.28;;;2.10;;
55423;SDS011;41294;42.666;23.350;2023-08-01T00:42:19;2.92;;;2.15;;
55423;SDS011;41294;42.666;23.350;2023-08-01T00:44:44;2.30;;;2.00;;
55423;SDS011;41294;42.666;23.350;2023-08-01T00:47:11;2.40;;;2.20;;
55423;SDS011;41294;42.666;23.350;2023-08-01T00:49:37;2.53;;;2.00;;
55423;SDS011;41294;42.666;23.350;2023-08-01T00:52:03;2.25;;;2.08;;
55423;SDS011;41294;42.666;23.350;2023-08-01T00:54:29;2.50;;;2.30;;
55423;SDS011;41294;42.666;23.350;2023-08-01T00:57:00;2.50;;;2.30;;
55423;SDS011;41294;42.666;23.350;2023-08-01T00:59:26;2.60;;;2.40;;
55423;SDS011;41294;42.666;23.350;2023-08-01T01:01:51;3.63;;;2.10;;
55423;SDS011;41294;42.666;23.350;2023-08-01T01:04:16;2.33;;;2.20;;
55423;SDS011;41294;42.666;23.350;2023-08-01T01:06:47;2.70;;;2.22;;
55423;SDS011;41294;42.666;23.350;2023-08-01T01:09:16;2.45;;;2.25;;
55423;SDS011;41294;42.666;23.350;2023-08-01T01:11:43;2.00;;;1.90;;
55423;SDS011;41294;42.666;23.350;2023-08-01T01:14:09;2.53;;;2.10;;
55423;SDS011;41294;42.666;23.350;2023-08-01T01:16:35;3.17;;;2.40;;
55423;SDS011;41294;42.666;23.350;2023-08-01T01:19:00;2.28;;;2.10;;
55423;SDS011;41294;42.666;23.350;2023-08-01T01:21:25;2.30;;;2.10;;
55423;SDS011;41294;42.666;23.350;2023-08-01T01:23:51;2.50;;;2.30;;
55423;SDS011;41294;42.666;23.350;2023-08-01T01:26:18;2.40;;;2.20;;
55423;SDS011;41294;42.666;23.350;2023-08-01T01:28:47;2.50;;;2.22;;
55423;SDS011;41294;42.666;23.350;2023-08-01T01:31:13;2.60;;;2.40;;
55423;SDS011;41294;42.666;23.350;2023-08-01T01:33:40;4.22;;;2.33;;
55423;SDS011;41294;42.666;23.350;2023-08-01T01:36:05;3.17;;;1.92;;
55423;SDS011;41294;42.666;23.350;2023-08-01T01:38:31;2.30;;;2.10;;
55423;SDS011;41294;42.666;23.350;2023-08-01T01:40:56;2.25;;;2.03;;
55423;SDS011;41294;42.666;23.350;2023-08-01T01:43:21;2.67;;;2.30;;
55423;SDS011;41294;42.666;23.350;2023-08-01T01:45:47;2.22;;;2.00;;
55423;SDS011;41294;42.666;23.350;2023-08-01T01:48:12;2.58;;;2.38;;
55423;SDS011;41294;42.666;23.350;2023-08-01T01:50:38;3.00;;;2.20;;
55423;SDS011;41294;42.666;23.350;2023-08-01T01:53:03;2.80;;;2.30;;
55423;SDS011;41294;42.666;23.350;2023-08-01T01:55:29;3.55;;;2.38;;
55423;SDS011;41294;42.666;23.350;2023-08-01T01:57:54;4.68;;;2.38;;
55423;SDS011;41294;42.666;23.350;2023-08-01T02:00:19;2.30;;;2.10;;
55423;SDS011;41294;42.666;23.350;2023-08-01T02:02:45;2.40;;;2.20;;
55423;SDS011;41294;42.666;23.350;2023-08-01T02:05:10;2.50;;;2.30;;
55423;SDS011;41294;42.666;23.350;2023-08-01T02:07:36;2.72;;;2.40;;
55423;SDS011;41294;42.666;23.350;2023-08-01T02:10:01;3.67;;;2.50;;
55423;SDS011;41294;42.666;23.350;2023-08-01T02:12:27;2.70;;;2.50;;
55423;SDS011;41294;42.666;23.350;2023-08-01T02:14:56;2.35;;;2.15;;
55423;SDS011;41294;42.666;23.350;2023-08-01T02:17:22;3.53;;;2.60;;
55423;SDS011;41294;42.666;23.350;2023-08-01T02:19:47;2.40;;;2.20;;
55423;SDS011;41294;42.666;23.350;2023-08-01T02:22:13;2.33;;;2.13;;
55423;SDS011;41294;42.666;23.350;2023-08-01T02:24:38;3.55;;;2.28;;
55423;SDS011;41294;42.666;23.350;2023-08-01T02:27:04;4.38;;;2.15;;
55423;SDS011;41294;42.666;23.350;2023-08-01T02:29:29;2.42;;;2.22;;
55423;SDS011;41294;42.666;23.350;2023-08-01T02:31:55;2.67;;;2.47;;
55423;SDS011;41294;42.666;23.350;2023-08-01T02:34:21;2.28;;;2.10;;
55423;SDS011;41294;42.666;23.350;2023-08-01T02:36:46;3.15;;;2.20;;
55423;SDS011;41294;42.666;23.350;2023-08-01T02:39:12;3.38;;;2.30;;
55423;SDS011;41294;42.666;23.350;2023-08-01T02:41:37;4.43;;;2.15;;
55423;SDS011;41294;42.666;23.350;2023-08-01T02:44:03;2.60;;;2.40;;
55423;SDS011;41294;42.666;23.350;2023-08-01T02:46:28;2.92;;;2.63;;
55423;SDS011;41294;42.666;23.350;2023-08-01T02:48:54;2.40;;;2.20;;
55423;SDS011;41294;42.666;23.350;2023-08-01T02:51:20;2.30;;;2.10;;
55423;SDS011;41294;42.666;23.350;2023-08-01T02:53:46;2.50;;;2.08;;
55423;SDS011;41294;42.666;23.350;2023-08-01T02:56:11;2.53;;;2.40;;
55423;SDS011;41294;42.666;23.350;2023-08-01T02:58:36;2.25;;;2.00;;
55423;SDS011;41294;42.666;23.350;2023-08-01T03:01:08;3.80;;;3.50;;
55423;SDS011;41294;42.666;23.350;2023-08-01T03:03:35;3.83;;;3.53;;
55423;SDS011;41294;42.666;23.350;2023-08-01T03:06:01;4.60;;;4.20;;
55423;SDS011;41294;42.666;23.350;2023-08-01T03:08:27;4.47;;;4.10;;
55423;SDS011;41294;42.666;23.350;2023-08-01T03:10:53;4.55;;;4.15;;
55423;SDS011;41294;42.666;23.350;2023-08-01T03:13:19;3.88;;;3.58;;
55423;SDS011;41294;42.666;23.350;2023-08-01T03:15:45;4.07;;;3.70;;
55423;SDS011;41294;42.666;23.350;2023-08-01T03:18:10;3.83;;;3.53;;
55423;SDS011;41294;42.666;23.350;2023-08-01T03:20:36;4.00;;;3.55;;
55423;SDS011;41294;42.666;23.350;2023-08-01T03:23:01;3.63;;;3.00;;
55423;SDS011;41294;42.666;23.350;2023-08-01T03:25:27;4.60;;;3.15;;
55423;SDS011;41294;42.666;23.350;2023-08-01T03:27:53;4.28;;;3.08;;
55423;SDS011;41294;42.666;23.350;2023-08-01T03:30:19;3.20;;;2.53;;
55423;SDS011;41294;42.666;23.350;2023-08-01T03:32:45;2.47;;;2.28;;
55423;SDS011;41294;42.666;23.350;2023-08-01T03:35:11;6.80;;;2.55;;
55423;SDS011;41294;42.666;23.350;2023-08-01T03:37:38;2.78;;;2.58;;
55423;SDS011;41294;42.666;23.350;2023-08-01T03:40:04;2.95;;;2.65;;
55423;SDS011;41294;42.666;23.350;2023-08-01T03:42:33;3.45;;;2.38;;
55423;SDS011;41294;42.666;23.350;2023-08-01T03:44:59;6.47;;;4.57;;
55423;SDS011;41294;42.666;23.350;2023-08-01T03:47:24;5.85;;;5.22;;
55423;SDS011;41294;42.666;23.350;2023-08-01T03:49:49;5.20;;;4.70;;
55423;SDS011;41294;42.666;23.350;2023-08-01T03:52:15;5.35;;;4.85;;
55423;SDS011;41294;42.666;23.350;2023-08-01T03:54:40;5.45;;;4.88;;
55423;SDS011;41294;42.666;23.350;2023-08-01T03:57:06;5.03;;;4.53;;
55423;SDS011;41294;42.666;23.350;2023-08-01T03:59:31;4.80;;;4.00;;
55423;SDS011;41294;42.666;23.350;2023-08-01T04:01:56;4.85;;;4.43;;
55423;SDS011;41294;42.666;23.350;2023-08-01T04:04:22;5.00;;;4.50;;
55423;SDS011;41294;42.666;23.350;2023-08-01T04:06:47;4.95;;;4.50;;
55423;SDS011;41294;42.666;23.350;2023-08-01T04:09:13;5.72;;;4.10;;
55423;SDS011;41294;42.666;23.350;2023-08-01T04:11:38;4.93;;;3.95;;
55423;SDS011;41294;42.666;23.350;2023-08-01T04:14:04;4.97;;;4.18;;
55423;SDS011;41294;42.666;23.350;2023-08-01T04:16:29;6.85;;;4.30;;
55423;SDS011;41294;42.666;23.350;2023-08-01T04:18:55;4.85;;;3.78;;
55423;SDS011;41294;42.666;23.350;2023-08-01T04:21:20;4.13;;;3.70;;
55423;SDS011;41294;42.666;23.350;2023-08-01T04:23:45;4.88;;;4.47;;
55423;SDS011;41294;42.666;23.350;2023-08-01T04:26:11;5.78;;;4.50;;
55423;SDS011;41294;42.666;23.350;2023-08-01T04:28:36;5.80;;;4.25;;
55423;SDS011;41294;42.666;23.350;2023-08-01T04:31:02;4.70;;;4.30;;
55423;SDS011;41294;42.666;23.350;2023-08-01T04:33:27;4.47;;;4.10;;
55423;SDS011;41294;42.666;23.350;2023-08-01T04:35:52;7.57;;;4.40;;
55423;SDS011;41294;42.666;23.350;2023-08-01T04:38:18;4.47;;;4.18;;
55423;SDS011;41294;42.666;23.350;2023-08-01T04:40:43;4.25;;;3.88;;
55423;SDS011;41294;42.666;23.350;2023-08-01T04:43:09;4.50;;;4.10;;
55423;SDS011;41294;42.666;23.350;2023-08-01T04:45:35;4.55;;;4.15;;
55423;SDS011;41294;42.666;23.350;2023-08-01T04:48:01;5.40;;;4.00;;
55423;SDS011;41294;42.666;23.350;2023-08-01T04:50:27;5.03;;;4.40;;
55423;SDS011;41294;42.666;23.350;2023-08-01T04:52:52;6.65;;;4.18;;
55423;SDS011;41294;42.666;23.350;2023-08-01T04:55:17;4.82;;;3.90;;
55423;SDS011;41294;42.666;23.350;2023-08-01T04:57:43;4.40;;;4.00;;
55423;SDS011;41294;42.666;23.350;2023-08-01T05:00:09;6.00;;;3.80;;
55423;SDS011;41294;42.666;23.350;2023-08-01T05:02:35;4.05;;;3.65;;
55423;SDS011;41294;42.666;23.350;2023-08-01T05:05:00;4.20;;;3.80;;
55423;SDS011;41294;42.666;23.350;2023-08-01T05:07:26;3.78;;;3.47;;
55423;SDS011;41294;42.666;23.350;2023-08-01T05:09:51;5.50;;;3.50;;
55423;SDS011;41294;42.666;23.350;2023-08-01T05:12:16;3.75;;;3.45;;
55423;SDS011;41294;42.666;23.350;2023-08-01T05:14:42;3.72;;;3.33;;
55423;SDS011;41294;42.666;23.350;2023-08-01T05:17:07;3.85;;;3.30;;
55423;SDS011;41294;42.666;23.350;2023-08-01T05:19:33;4.47;;;3.58;;
55423;SDS011;41294;42.666;23.350;2023-08-01T05:21:58;4.30;;;4.00;;
55423;SDS011;41294;42.666;23.350;2023-08-01T05:24:23;5.28;;;3.78;;
55423;SDS011;41294;42.666;23.350;2023-08-01T05:26:49;5.30;;;3.42;;
55423;SDS011;41294;42.666;23.350;2023-08-01T05:29:14;4.65;;;3.67;;
55423;SDS011;41294;42.666;23.350;2023-08-01T05:31:39;5.47;;;4.18;;
55423;SDS011;41294;42.666;23.350;2023-08-01T05:34:05;6.03;;;3.65;;
55423;SDS011;41294;42.666;23.350;2023-08-01T05:36:30;3.95;;;3.55;;
55423;SDS011;41294;42.666;23.350;2023-08-01T05:38:56;3.67;;;3.03;;
55423;SDS011;41294;42.666;23.350;2023-08-01T05:41:22;3.88;;;3.30;;
55423;SDS011;41294;42.666;23.350;2023-08-01T05:43:48;4.80;;;3.15;;
55423;SDS011;41294;42.666;23.350;2023-08-01T05:46:14;4.22;;;3.17;;
55423;SDS011;41294;42.666;23.350;2023-08-01T05:48:40;3.80;;;2.90;;
55423;SDS011;41294;42.666;23.350;2023-08-01T05:51:06;3.28;;;2.97;;
55423;SDS011;41294;42.666;23.350;2023-08-01T05:53:31;3.05;;;2.75;;
55423;SDS011;41294;42.666;23.350;2023-08-01T05:55:57;3.45;;;3.15;;
55423;SDS011;41294;42.666;23.350;2023-08-01T05:58:22;4.25;;;2.80;;
55423;SDS011;41294;42.666;23.350;2023-08-01T06:00:48;7.40;;;3.10;;
55423;SDS011;41294;42.666;23.350;2023-08-01T06:03:13;4.07;;;3.08;;
55423;SDS011;41294;42.666;23.350;2023-08-01T06:05:39;3.03;;;2.80;;
55423;SDS011;41294;42.666;23.350;2023-08-01T06:08:07;4.97;;;2.95;;
55423;SDS011;41294;42.666;23.350;2023-08-01T06:10:33;3.53;;;2.63;;
55423;SDS011;41294;42.666;23.350;2023-08-01T06:12:59;2.78;;;2.55;;
55423;SDS011;41294;42.666;23.350;2023-08-01T06:15:24;3.72;;;2.35;;
55423;SDS011;41294;42.666;23.350;2023-08-01T06:17:50;2.75;;;2.55;;
55423;SDS011;41294;42.666;23.350;2023-08-01T06:20:15;2.70;;;2.47;;
55423;SDS011;41294;42.666;23.350;2023-08-01T06:22:41;3.30;;;2.53;;
55423;SDS011;41294;42.666;23.350;2023-08-01T06:25:07;2.90;;;2.30;;
55423;SDS011;41294;42.666;23.350;2023-08-01T06:27:33;2.47;;;2.33;;
55423;SDS011;41294;42.666;23.350;2023-08-01T06:29:59;2.85;;;2.38;;
55423;SDS011;41294;42.666;23.350;2023-08-01T06:32:25;4.25;;;2.58;;
55423;SDS011;41294;42.666;23.350;2023-08-01T06:34:51;4.13;;;2.70;;
55423;SDS011;41294;42.666;23.350;2023-08-01T06:37:17;3.13;;;2.33;;
55423;SDS011;41294;42.666;23.350;2023-08-01T06:39:42;2.85;;;2.55;;
55423;SDS011;41294;42.666;23.350;2023-08-01T06:42:07;3.05;;;2.60;;
55423;SDS011;41294;42.666;23.350;2023-08-01T06:44:33;3.85;;;2.70;;
55423;SDS011;41294;42.666;23.350;2023-08-01T06:46:59;5.05;;;3.95;;
55423;SDS011;41294;42.666;23.350;2023-08-01T06:49:24;4.07;;;3.58;;
55423;SDS011;41294;42.666;23.350;2023-08-01T06:51:49;5.15;;;3.58;;
55423;SDS011;41294;42.666;23.350;2023-08-01T06:54:15;5.93;;;3.55;;
55423;SDS011;41294;42.666;23.350;2023-08-01T06:56:41;4.75;;;2.83;;
55423;SDS011;41294;42.666;23.350;2023-08-01T06:59:12;6.22;;;3.80;;
55423;SDS011;41294;42.666;23.350;2023-08-01T07:01:38;5.95;;;3.88;;
55423;SDS011;41294;42.666;23.350;2023-08-01T07:04:05;7.30;;;4.20;;
55423;SDS011;41294;42.666;23.350;2023-08-01T07:06:31;4.22;;;3.85;;
55423;SDS011;41294;42.666;23.350;2023-08-01T07:08:56;4.63;;;3.90;;
55423;SDS011;41294;42.666;23.350;2023-08-01T07:11:22;5.05;;;3.85;;
55423;SDS011;41294;42.666;23.350;2023-08-01T07:13:48;6.25;;;4.15;;
55423;SDS011;41294;42.666;23.350;2023-08-01T07:16:13;4.22;;;3.60;;
55423;SDS011;41294;42.666;23.350;2023-08-01T07:18:39;6.45;;;3.78;;
55423;SDS011;41294;42.666;23.350;2023-08-01T07:21:05;6.93;;;4.03;;
55423;SDS011;41294;42.666;23.350;2023-08-01T07:23:31;7.25;;;3.58;;
55423;SDS011;41294;42.666;23.350;2023-08-01T07:25:58;8.10;;;4.00;;
55423;SDS011;41294;42.666;23.350;2023-08-01T07:28:24;6.82;;;4.38;;
55423;SDS011;41294;42.666;23.350;2023-08-01T07:30:57;6.43;;;4.40;;
55423;SDS011;41294;42.666;23.350;2023-08-01T07:33:23;6.47;;;4.03;;
55423;SDS011;41294;42.666;23.350;2023-08-01T07:35:49;6.50;;;3.80;;
55423;SDS011;41294;42.666;23.350;2023-08-01T07:38:14;5.43;;;3.25;;
55423;SDS011;41294;42.666;23.350;2023-08-01T07:40:39;8.27;;;3.80;;
55423;SDS011;41294;42.666;23.350;2023-08-01T07:43:05;5.43;;;4.10;;
55423;SDS011;41294;42.666;23.350;2023-08-01T07:45:32;5.13;;;3.30;;
55423;SDS011;41294;42.666;23.350;2023-08-01T07:47:59;4.25;;;3.72;;
55423;SDS011;41294;42.666;23.350;2023-08-01T07:50:25;10.07;;;4.05;;
55423;SDS011;41294;42.666;23.350;2023-08-01T07:52:51;6.47;;;3.83;;
55423;SDS011;41294;42.666;23.350;2023-08-01T07:55:16;3.67;;;3.38;;
55423;SDS011;41294;42.666;23.350;2023-08-01T07:57:43;4.55;;;3.60;;
55423;SDS011;41294;42.666;23.350;2023-08-01T08:00:11;5.60;;;3.30;;
55423;SDS011;41294;42.666;23.350;2023-08-01T08:02:37;5.63;;;3.58;;
55423;SDS011;41294;42.666;23.350;2023-08-01T08:05:02;4.00;;;3.60;;
55423;SDS011;41294;42.666;23.350;2023-08-01T08:07:28;4.78;;;3.50;;
55423;SDS011;41294;42.666;23.350;2023-08-01T08:09:53;8.85;;;3.65;;
55423;SDS011;41294;42.666;23.350;2023-08-01T08:12:20;5.47;;;3.13;;
55423;SDS011;41294;42.666;23.350;2023-08-01T08:14:47;6.07;;;3.95;;
55423;SDS011;41294;42.666;23.350;2023-08-01T08:17:12;7.13;;;3.50;;
55423;SDS011;41294;42.666;23.350;2023-08-01T08:19:37;5.95;;;3.25;;
55423;SDS011;41294;42.666;23.350;2023-08-01T08:22:03;5.95;;;3.55;;
55423;SDS011;41294;42.666;23.350;2023-08-01T08:24:28;6.40;;;3.35;;
55423;SDS011;41294;42.666;23.350;2023-08-01T08:26:54;7.25;;;4.57;;
55423;SDS011;41294;42.666;23.350;2023-08-01T08:29:20;4.72;;;3.50;;
55423;SDS011;41294;42.666;23.350;2023-08-01T08:31:46;6.45;;;3.78;;
55423;SDS011;41294;42.666;23.350;2023-08-01T08:34:11;6.20;;;3.53;;
55423;SDS011;41294;42.666;23.350;2023-08-01T08:36:37;5.68;;;3.63;;
55423;SDS011;41294;42.666;23.350;2023-08-01T08:39:02;4.70;;;3.55;;
55423;SDS011;41294;42.666;23.350;2023-08-01T08:41:28;4.43;;;3.53;;
55423;SDS011;41294;42.666;23.350;2023-08-01T08:44:00;3.75;;;3.38;;
55423;SDS011;41294;42.666;23.350;2023-08-01T08:46:29;4.20;;;3.33;;
55423;SDS011;41294;42.666;23.350;2023-08-01T08:49:13;3.42;;;3.13;;
55423;SDS011;41294;42.666;23.350;2023-08-01T08:51:40;3.75;;;3.45;;
55423;SDS011;41294;42.666;23.350;2023-08-01T08:54:07;5.85;;;2.97;;
55423;SDS011;41294;42.666;23.350;2023-08-01T08:56:33;4.85;;;3.20;;
55423;SDS011;41294;42.666;23.350;2023-08-01T08:59:00;4.55;;;3.45;;
55423;SDS011;41294;42.666;23.350;2023-08-01T09:01:26;6.18;;;4.32;;
55423;SDS011;41294;42.666;23.350;2023-08-01T09:03:53;6.10;;;3.60;;
55423;SDS011;41294;42.666;23.350;2023-08-01T09:06:21;4.13;;;3.25;;
55423;SDS011;41294;42.666;23.350;2023-08-01T09:11:27;4.00;;;3.55;;
55423;SDS011;41294;42.666;23.350;2023-08-01T09:13:53;6.88;;;3.63;;
55423;SDS011;41294;42.666;23.350;2023-08-01T09:16:18;4.70;;;3.20;;
55423;SDS011;41294;42.666;23.350;2023-08-01T09:18:48;5.68;;;3.30;;
55423;SDS011;41294;42.666;23.350;2023-08-01T09:21:17;7.35;;;3.13;;
55423;SDS011;41294;42.666;23.350;2023-08-01T09:23:46;5.55;;;3.45;;
55423;SDS011;41294;42.666;23.350;2023-08-01T09:26:13;4.50;;;2.90;;
55423;SDS011;41294;42.666;23.350;2023-08-01T09:28:42;5.85;;;3.38;;
55423;SDS011;41294;42.666;23.350;2023-08-01T09:31:10;4.90;;;3.30;;
55423;SDS011;41294;42.666;23.350;2023-08-01T09:33:42;4.80;;;3.47;;
55423;SDS011;41294;42.666;23.350;2023-08-01T09:36:08;3.97;;;3.67;;
55423;SDS011;41294;42.666;23.350;2023-08-01T09:38:34;4.38;;;3.70;;
55423;SDS011;41294;42.666;23.350;2023-08-01T09:41:00;3.97;;;3.30;;
55423;SDS011;41294;42.666;23.350;2023-08-01T09:43:31;5.25;;;3.75;;
55423;SDS011;41294;42.666;23.350;2023-08-01T09:46:00;4.47;;;3.28;;
55423;SDS011;41294;42.666;23.350;2023-08-01T09:48:27;5.22;;;3.20;;
55423;SDS011;41294;42.666;23.350;2023-08-01T09:51:07;5.93;;;3.83;;
55423;SDS011;41294;42.666;23.350;2023-08-01T09:53:34;3.92;;;3.53;;
55423;SDS011;41294;42.666;23.350;2023-08-01T09:56:01;6.40;;;3.55;;
55423;SDS011;41294;42.666;23.350;2023-08-01T09:58:29;5.15;;;3.85;;
55423;SDS011;41294;42.666;23.350;2023-08-01T10:00:59;3.60;;;3.30;;
55423;SDS011;41294;42.666;23.350;2023-08-01T10:03:25;5.05;;;3.70;;
55423;SDS011;41294;42.666;23.350;2023-08-01T10:05:53;3.58;;;3.28;;
55423;SDS011;41294;42.666;23.350;2023-08-01T10:08:20;4.70;;;3.63;;
55423;SDS011;41294;42.666;23.350;2023-08-01T10:10:47;4.50;;;3.72;;
55423;SDS011;41294;42.666;23.350;2023-08-01T10:13:13;5.70;;;3.90;;
55423;SDS011;41294;42.666;23.350;2023-08-01T10:15:38;5.30;;;3.72;;
55423;SDS011;41294;42.666;23.350;2023-08-01T10:18:05;4.10;;;3.58;;
55423;SDS011;41294;42.666;23.350;2023-08-01T10:20:30;4.13;;;3.75;;
55423;SDS011;41294;42.666;23.350;2023-08-01T10:22:57;4.07;;;3.70;;
55423;SDS011;41294;42.666;23.350;2023-08-01T10:25:24;5.82;;;3.95;;
55423;SDS011;41294;42.666;23.350;2023-08-01T10:27:58;6.22;;;3.88;;
55423;SDS011;41294;42.666;23.350;2023-08-01T10:30:32;3.83;;;3.50;;
55423;SDS011;41294;42.666;23.350;2023-08-01T10:32:58;4.80;;;3.92;;
55423;SDS011;41294;42.666;23.350;2023-08-01T10:35:34;3.92;;;3.63;;
55423;SDS011;41294;42.666;23.350;2023-08-01T10:38:08;9.90;;;4.10;;
55423;SDS011;41294;42.666;23.350;2023-08-01T10:40:37;4.00;;;3.67;;
55423;SDS011;41294;42.666;23.350;2023-08-01T10:43:06;8.35;;;4.18;;
55423;SDS011;41294;42.666;23.350;2023-08-01T10:45:43;4.28;;;3.97;;
55423;SDS011;41294;42.666;23.350;2023-08-01T10:48:09;5.72;;;4.38;;
55423;SDS011;41294;42.666;23.350;2023-08-01T10:50:35;5.20;;;3.97;;
55423;SDS011;41294;42.666;23.350;2023-08-01T10:53:05;4.28;;;3.55;;
55423;SDS011;41294;42.666;23.350;2023-08-01T10:55:38;3.95;;;3.60;;
55423;SDS011;41294;42.666;23.350;2023-08-01T10:58:08;4.70;;;3.55;;
55423;SDS011;41294;42.666;23.350;2023-08-01T11:00:34;3.35;;;3.05;;
55423;SDS011;41294;42.666;23.350;2023-08-01T11:02:59;6.75;;;3.90;;
55423;SDS011;41294;42.666;23.350;2023-08-01T11:05:25;5.03;;;3.70;;
55423;SDS011;41294;42.666;23.350;2023-08-01T11:07:54;4.93;;;3.42;;
55423;SDS011;41294;42.666;23.350;2023-08-01T11:10:25;4.93;;;3.47;;
55423;SDS011;41294;42.666;23.350;2023-08-01T11:12:51;3.90;;;3.10;;
55423;SDS011;41294;42.666;23.350;2023-08-01T11:15:18;4.80;;;2.92;;
55423;SDS011;41294;42.666;23.350;2023-08-01T11:17:51;5.40;;;3.25;;
55423;SDS011;41294;42.666;23.350;2023-08-01T11:20:18;4.05;;;3.65;;
55423;SDS011;41294;42.666;23.350;2023-08-01T11:23:04;4.05;;;3.25;;
55423;SDS011;41294;42.666;23.350;2023-08-01T11:28:06;3.33;;;3.03;;
55423;SDS011;41294;42.666;23.350;2023-08-01T11:30:33;4.40;;;3.15;;
55423;SDS011;41294;42.666;23.350;2023-08-01T11:32:59;4.68;;;3.03;;
55423;SDS011;41294;42.666;23.350;2023-08-01T11:35:25;3.30;;;3.05;;
55423;SDS011;41294;42.666;23.350;2023-08-01T11:37:50;3.55;;;3.25;;
55423;SDS011;41294;42.666;23.350;2023-08-01T11:40:17;3.65;;;3.05;;
55423;SDS011;41294;42.666;23.350;2023-08-01T11:42:47;3.42;;;3.13;;
55423;SDS011;41294;42.666;23.350;2023-08-01T11:45:16;3.38;;;2.78;;
55423;SDS011;41294;42.666;23.350;2023-08-01T11:47:45;3.53;;;3.20;;
55423;SDS011;41294;42.666;23.350;2023-08-01T11:50:11;5.63;;;3.25;;
55423;SDS011;41294;42.666;23.350;2023-08-01T11:52:37;3.72;;;3.28;;
55423;SDS011;41294;42.666;23.350;2023-08-01T11:55:02;3.67;;;3.28;;
55423;SDS011;41294;42.666;23.350;2023-08-01T11:57:28;3.55;;;3.25;;
55423;SDS011;41294;42.666;23.350;2023-08-01T11:59:55;3.50;;;3.05;;
55423;SDS011;41294;42.666;23.350;2023-08-01T12:02:22;4.07;;;3.67;;
55423;SDS011;41294;42.666;23.350;2023-08-01T12:04:48;2.90;;;2.70;;
55423;SDS011;41294;42.666;23.350;2023-08-01T12:07:13;4.47;;;3.33;;
55423;SDS011;41294;42.666;23.350;2023-08-01T12:09:42;3.40;;;3.03;;
55423;SDS011;41294;42.666;23.350;2023-08-01T12:12:08;5.05;;;2.90;;
55423;SDS011;41294;42.666;23.350;2023-08-01T12:14:38;3.83;;;3.00;;
55423;SDS011;41294;42.666;23.350;2023-08-01T12:17:05;5.50;;;3.20;;
55423;SDS011;41294;42.666;23.350;2023-08-01T12:19:30;3.72;;;3.22;;
55423;SDS011;41294;42.666;23.350;2023-08-01T12:21:56;5.03;;;3.28;;
55423;SDS011;41294;42.666;23.350;2023-08-01T12:24:21;5.47;;;3.30;;
55423;SDS011;41294;42.666;23.350;2023-08-01T12:26:53;6.22;;;3.50;;
55423;SDS011;41294;42.666;23.350;2023-08-01T12:29:18;3.60;;;3.30;;
55423;SDS011;41294;42.666;23.350;2023-08-01T12:31:44;7.18;;;2.95;;
55423;SDS011;41294;42.666;23.350;2023-08-01T12:34:11;3.28;;;2.97;;
55423;SDS011;41294;42.666;23.350;2023-08-01T12:36:36;4.38;;;3.72;;
55423;SDS011;41294;42.666;23.350;2023-08-01T12:39:01;4.88;;;3.25;;
55423;SDS011;41294;42.666;23.350;2023-08-01T12:41:27;4.28;;;2.97;;
55423;SDS011;41294;42.666;23.350;2023-08-01T12:43:53;4.90;;;3.05;;
55423;SDS011;41294;42.666;23.350;2023-08-01T12:46:18;5.18;;;3.15;;
55423;SDS011;41294;42.666;23.350;2023-08-01T12:48:43;5.95;;;3.47;;
55423;SDS011;41294;42.666;23.350;2023-08-01T12:51:09;3.20;;;3.00;;
55423;SDS011;41294;42.666;23.350;2023-08-01T12:53:34;6.03;;;3.05;;
55423;SDS011;41294;42.666;23.350;2023-08-01T12:56:00;3.42;;;3.13;;
55423;SDS011;41294;42.666;23.350;2023-08-01T12:58:26;4.30;;;3.00;;
55423;SDS011;41294;42.666;23.350;2023-08-01T13:00:51;3.45;;;3.17;;
55423;SDS011;41294;42.666;23.350;2023-08-01T13:03:17;4.88;;;2.92;;
55423;SDS011;41294;42.666;23.350;2023-08-01T13:05:43;3.65;;;3.05;;
55423;SDS011;41294;42.666;23.350;2023-08-01T13:08:08;4.45;;;3.03;;
55423;SDS011;41294;42.666;23.350;2023-08-01T13:10:35;3.70;;;2.83;;
55423;SDS011;41294;42.666;23.350;2023-08-01T13:13:01;3.55;;;3.25;;
55423;SDS011;41294;42.666;23.350;2023-08-01T13:15:27;5.55;;;3.47;;
55423;SDS011;41294;42.666;23.350;2023-08-01T13:17:53;3.28;;;3.05;;
55423;SDS011;41294;42.666;23.350;2023-08-01T13:20:19;3.97;;;3.10;;
55423;SDS011;41294;42.666;23.350;2023-08-01T13:22:45;4.80;;;2.80;;
55423;SDS011;41294;42.666;23.350;2023-08-01T13:25:12;3.50;;;3.20;;
55423;SDS011;41294;42.666;23.350;2023-08-01T13:27:39;3.22;;;2.88;;
55423;SDS011;41294;42.666;23.350;2023-08-01T13:30:04;3.67;;;3.03;;
55423;SDS011;41294;42.666;23.350;2023-08-01T13:32:30;3.42;;;3.13;;
55423;SDS011;41294;42.666;23.350;2023-08-01T13:34:56;6.00;;;3.17;;
55423;SDS011;41294;42.666;23.350;2023-08-01T13:37:21;7.20;;;2.90;;
55423;SDS011;41294;42.666;23.350;2023-08-01T13:39:47;3.13;;;2.92;;
55423;SDS011;41294;42.666;23.350;2023-08-01T13:42:12;4.53;;;3.00;;
55423;SDS011;41294;42.666;23.350;2023-08-01T13:44:38;4.22;;;2.90;;
55423;SDS011;41294;42.666;23.350;2023-08-01T13:47:03;4.63;;;3.42;;
55423;SDS011;41294;42.666;23.350;2023-08-01T13:49:29;3.92;;;3.08;;
55423;SDS011;41294;42.666;23.350;2023-08-01T13:51:55;3.38;;;3.08;;
55423;SDS011;41294;42.666;23.350;2023-08-01T13:54:20;5.05;;;3.10;;
55423;SDS011;41294;42.666;23.350;2023-08-01T13:56:46;3.20;;;2.97;;
55423;SDS011;41294;42.666;23.350;2023-08-01T13:59:11;3.42;;;3.10;;
55423;SDS011;41294;42.666;23.350;2023-08-01T14:01:37;3.00;;;2.70;;
55423;SDS011;41294;42.666;23.350;2023-08-01T14:04:03;3.38;;;2.90;;
55423;SDS011;41294;42.666;23.350;2023-08-01T14:06:29;5.13;;;2.97;;
55423;SDS011;41294;42.666;23.350;2023-08-01T14:08:55;7.25;;;2.58;;
55423;SDS011;41294;42.666;23.350;2023-08-01T14:11:20;2.78;;;2.53;;
55423;SDS011;41294;42.666;23.350;2023-08-01T14:13:45;2.80;;;2.50;;
55423;SDS011;41294;42.666;23.350;2023-08-01T14:16:11;3.30;;;2.47;;
55423;SDS011;41294;42.666;23.350;2023-08-01T14:18:36;3.05;;;2.42;;
55423;SDS011;41294;42.666;23.350;2023-08-01T14:21:02;2.53;;;2.25;;
55423;SDS011;41294;42.666;23.350;2023-08-01T14:23:27;3.05;;;2.40;;
55423;SDS011;41294;42.666;23.350;2023-08-01T14:25:53;3.33;;;2.78;;
55423;SDS011;41294;42.666;23.350;2023-08-01T14:28:18;2.75;;;2.55;;
55423;SDS011;41294;42.666;23.350;2023-08-01T14:30:44;2.95;;;2.70;;
55423;SDS011;41294;42.666;23.350;2023-08-01T14:33:09;3.92;;;2.92;;